createdAt,value
2018-04-25T00:02:10.011Z,4.47
2018-04-25T00:04:38.393Z,4.30
2018-04-25T00:07:05.958Z,4.50
2018-04-25T00:09:34.228Z,4.57
2018-04-25T00:12:01.794Z,4.47
2018-04-25T00:14:29.293Z,4.30
2018-04-25T00:16:57.695Z,4.50
2018-04-25T00:19:25.114Z,4.30
2018-04-25T00:21:52.739Z,4.13
2018-04-25T00:24:20.243Z,4.10
2018-04-25T00:26:47.725Z,4.30
2018-04-25T00:29:15.281Z,4.50
2018-04-25T00:31:43.533Z,4.10
2018-04-25T00:34:11.021Z,4.23
2018-04-25T00:36:38.505Z,4.40
2018-04-25T00:39:06.855Z,4.10
2018-04-25T00:41:34.430Z,4.27
2018-04-25T00:44:02.007Z,4.03
2018-04-25T00:46:29.559Z,3.90
2018-04-25T00:48:57.084Z,4.10
2018-04-25T00:51:24.591Z,4.00
2018-04-25T00:53:52.163Z,4.30
2018-04-25T00:56:19.640Z,4.10
2018-04-25T00:58:47.896Z,3.73
2018-04-25T01:01:15.375Z,4.20
2018-04-25T01:03:43.630Z,4.30
2018-04-25T01:06:11.217Z,3.83
2018-04-25T01:08:38.774Z,4.27
2018-04-25T01:11:06.347Z,3.90
2018-04-25T01:13:33.838Z,4.20
2018-04-25T01:16:02.091Z,4.03
2018-04-25T01:18:29.661Z,3.90
2018-04-25T01:20:57.148Z,4.23
2018-04-25T01:23:25.472Z,3.67
2018-04-25T01:25:58.723Z,4.17
2018-04-25T01:28:34.663Z,4.10
2018-04-25T01:31:02.218Z,4.27
2018-04-25T01:33:37.268Z,3.93
2018-04-25T01:36:06.349Z,4.10
2018-04-25T01:38:34.004Z,4.00
2018-04-25T01:41:09.954Z,3.77
2018-04-25T01:43:39.362Z,3.80
2018-04-25T01:46:07.625Z,4.10
2018-04-25T01:51:45.918Z,3.83
2018-04-25T01:54:26.102Z,3.97
2018-04-25T01:57:05.576Z,3.60
2018-04-25T01:59:45.101Z,3.20
2018-04-25T02:02:12.120Z,3.90
2018-04-25T02:04:39.638Z,3.57
2018-04-25T02:07:07.124Z,3.80
2018-04-25T02:09:35.488Z,3.57
2018-04-25T02:12:03.004Z,3.57
2018-04-25T02:14:30.478Z,3.40
2018-04-25T02:16:58.087Z,3.70
2018-04-25T02:19:25.644Z,3.10
2018-04-25T02:21:53.126Z,3.97
2018-04-25T02:24:20.668Z,3.40
2018-04-25T02:26:48.246Z,3.63
2018-04-25T02:29:15.812Z,3.50
2018-04-25T02:31:43.365Z,3.30
2018-04-25T02:34:10.926Z,3.37
2018-04-25T02:36:38.510Z,3.40
2018-04-25T02:39:06.069Z,3.50
2018-04-25T02:41:33.642Z,3.30
2018-04-25T02:44:01.151Z,3.17
2018-04-25T02:46:28.632Z,3.47
2018-04-25T02:48:56.116Z,3.10
2018-04-25T02:51:23.685Z,3.40
2018-04-25T02:53:51.253Z,3.33
2018-04-25T02:56:18.828Z,3.60
2018-04-25T02:58:46.438Z,3.23
2018-04-25T03:01:14.571Z,3.47
2018-04-25T03:03:42.085Z,3.60
2018-04-25T03:06:09.590Z,3.20
2018-04-25T03:08:37.173Z,3.27
2018-04-25T03:11:05.417Z,3.60
2018-04-25T03:13:32.897Z,2.90
2018-04-25T03:16:00.469Z,3.23
2018-04-25T03:18:28.049Z,3.47
2018-04-25T03:20:55.609Z,3.23
2018-04-25T03:23:23.183Z,3.50
2018-04-25T03:25:50.663Z,3.40
2018-04-25T03:28:18.913Z,3.50
2018-04-25T03:30:46.432Z,3.40
2018-04-25T03:33:13.963Z,3.20
2018-04-25T03:35:41.443Z,3.33
2018-04-25T03:38:09.786Z,3.03
2018-04-25T03:40:37.268Z,3.20
2018-04-25T03:43:04.837Z,3.67
2018-04-25T03:45:32.325Z,3.30
2018-04-25T03:48:00.575Z,3.17
2018-04-25T03:50:28.139Z,3.10
2018-04-25T03:52:55.713Z,3.00
2018-04-25T03:55:23.217Z,3.27
2018-04-25T03:57:50.736Z,3.20
2018-04-25T04:00:18.216Z,3.40
2018-04-25T04:02:46.586Z,3.20
2018-04-25T04:05:14.065Z,3.53
2018-04-25T04:07:42.423Z,3.20
2018-04-25T04:10:09.914Z,3.53
2018-04-25T04:12:38.268Z,7.17
2018-04-25T04:15:05.777Z,26.03
2018-04-25T04:17:34.121Z,17.47
2018-04-25T04:20:01.697Z,13.20
2018-04-25T04:22:29.195Z,13.20
2018-04-25T04:24:56.709Z,13.87
2018-04-25T04:27:24.308Z,12.17
2018-04-25T04:29:51.814Z,12.77
2018-04-25T04:32:19.420Z,10.27
2018-04-25T04:34:46.937Z,11.73
2018-04-25T04:37:14.435Z,11.13
2018-04-25T04:39:42.029Z,11.77
2018-04-25T04:42:09.529Z,10.20
2018-04-25T04:44:37.111Z,11.37
2018-04-25T04:47:04.622Z,10.23
2018-04-25T04:49:32.231Z,9.60
2018-04-25T04:51:59.685Z,10.83
2018-04-25T04:54:27.181Z,10.10
2018-04-25T04:56:54.764Z,9.30
2018-04-25T04:59:22.268Z,32.73
2018-04-25T05:01:50.617Z,52.37
2018-04-25T05:04:18.132Z,44.03
2018-04-25T05:06:45.612Z,36.73
2018-04-25T05:09:13.154Z,35.47
2018-04-25T05:11:40.646Z,34.77
2018-04-25T05:14:08.138Z,35.43
2018-04-25T05:16:35.707Z,35.27
2018-04-25T05:19:03.202Z,32.77
2018-04-25T05:21:31.564Z,31.10
2018-04-25T05:23:59.114Z,29.07
2018-04-25T05:26:26.690Z,28.67
2018-04-25T05:28:54.256Z,27.33
2018-04-25T05:31:21.812Z,26.53
2018-04-25T05:33:49.310Z,25.57
2018-04-25T05:36:17.574Z,23.40
2018-04-25T05:38:45.094Z,25.13
2018-04-25T05:41:12.593Z,23.70
2018-04-25T05:43:40.157Z,23.37
2018-04-25T05:46:07.678Z,23.50
2018-04-25T05:48:35.189Z,22.57
2018-04-25T05:51:02.680Z,23.47
2018-04-25T05:53:31.031Z,23.20
2018-04-25T05:55:58.601Z,22.93
2018-04-25T05:58:26.163Z,22.20
2018-04-25T06:00:53.675Z,22.03
2018-04-25T06:03:21.191Z,22.93
2018-04-25T06:05:48.676Z,22.13
2018-04-25T06:08:16.935Z,20.50
2018-04-25T06:10:44.440Z,21.73
2018-04-25T06:13:11.962Z,21.73
2018-04-25T06:15:39.498Z,21.90
2018-04-25T06:18:07.078Z,19.33
2018-04-25T06:20:34.672Z,20.23
2018-04-25T06:23:02.242Z,18.67
2018-04-25T06:25:29.726Z,19.63
2018-04-25T06:27:58.068Z,20.40
2018-04-25T06:30:25.688Z,19.13
2018-04-25T06:32:53.202Z,19.37
2018-04-25T06:35:20.734Z,17.83
2018-04-25T06:37:48.249Z,18.37
2018-04-25T06:40:15.802Z,17.60
2018-04-25T06:42:43.304Z,17.90
2018-04-25T06:45:11.571Z,16.30
2018-04-25T06:47:39.090Z,17.47
2018-04-25T06:50:06.698Z,16.97
2018-04-25T06:52:34.981Z,16.97
2018-04-25T06:55:03.353Z,16.60
2018-04-25T06:57:30.931Z,17.27
2018-04-25T06:59:58.477Z,17.23
2018-04-25T07:02:25.953Z,16.40
2018-04-25T07:04:53.439Z,15.80
2018-04-25T07:07:21.782Z,16.17
2018-04-25T07:09:49.367Z,16.43
2018-04-25T07:12:16.876Z,16.40
2018-04-25T07:14:44.388Z,16.40
2018-04-25T07:17:11.895Z,15.63
2018-04-25T07:19:39.387Z,16.00
2018-04-25T07:22:06.896Z,15.10
2018-04-25T07:24:34.424Z,14.53
2018-04-25T07:27:02.013Z,15.47
2018-04-25T07:29:29.583Z,15.43
2018-04-25T07:31:57.864Z,14.50
2018-04-25T07:34:25.386Z,15.17
2018-04-25T07:36:52.898Z,14.77
2018-04-25T07:39:20.410Z,13.80
2018-04-25T07:41:47.912Z,14.40
2018-04-25T07:44:15.413Z,13.87
2018-04-25T07:46:43.670Z,14.37
2018-04-25T07:49:12.048Z,12.87
2018-04-25T07:51:39.616Z,13.90
2018-04-25T07:54:07.179Z,13.03
2018-04-25T07:56:34.752Z,12.63
2018-04-25T07:59:02.237Z,12.87
2018-04-25T08:01:30.609Z,13.00
2018-04-25T08:03:58.097Z,13.20
2018-04-25T08:06:25.630Z,13.03
2018-04-25T08:08:53.198Z,12.60
2018-04-25T08:11:20.775Z,12.40
2018-04-25T08:14:00.291Z,12.10
2018-04-25T08:16:39.675Z,13.03
2018-04-25T08:19:19.282Z,12.20
2018-04-25T08:21:46.772Z,11.97
2018-04-25T08:24:14.276Z,11.30
2018-04-25T08:26:41.782Z,12.73
2018-04-25T08:29:10.146Z,12.17
2018-04-25T08:31:37.672Z,12.63
2018-04-25T08:34:05.204Z,11.33
2018-04-25T08:36:33.457Z,12.20
2018-04-25T08:39:00.968Z,11.20
2018-04-25T08:41:28.492Z,12.33
2018-04-25T08:43:57.582Z,11.17
2018-04-25T08:46:25.064Z,10.80
2018-04-25T08:48:52.568Z,11.20
2018-04-25T08:51:20.073Z,11.67
2018-04-25T08:53:47.587Z,11.73
2018-04-25T08:56:15.103Z,10.57
2018-04-25T08:58:42.611Z,11.33
2018-04-25T09:01:10.974Z,11.10
2018-04-25T09:03:38.554Z,11.13
2018-04-25T09:06:06.835Z,10.43
2018-04-25T09:08:35.108Z,10.37
2018-04-25T09:11:02.650Z,10.50
2018-04-25T09:13:30.152Z,10.60
2018-04-25T09:15:58.500Z,9.97
2018-04-25T09:18:26.796Z,10.13
2018-04-25T09:20:54.372Z,9.43
2018-04-25T09:23:22.637Z,9.80
2018-04-25T09:25:50.136Z,10.37
2018-04-25T09:28:17.629Z,9.63
2018-04-25T09:30:45.135Z,9.40
2018-04-25T09:33:12.709Z,10.60
2018-04-25T09:35:40.256Z,9.90
2018-04-25T09:38:07.762Z,9.30
2018-04-25T09:40:35.240Z,9.57
2018-04-25T09:43:02.757Z,8.97
2018-04-25T09:45:30.316Z,9.10
2018-04-25T09:47:57.888Z,8.97
2018-04-25T09:50:26.287Z,9.07
2018-04-25T09:52:53.822Z,9.30
2018-04-25T09:55:21.325Z,9.00
2018-04-25T09:57:49.755Z,8.73
2018-04-25T10:00:17.198Z,8.73
2018-04-25T10:02:44.700Z,8.90
2018-04-25T10:05:12.203Z,8.03
2018-04-25T10:07:40.554Z,8.73
2018-04-25T10:10:08.046Z,8.30
2018-04-25T10:12:36.401Z,8.17
2018-04-25T10:15:03.960Z,8.43
2018-04-25T10:17:31.544Z,7.80
2018-04-25T10:19:59.308Z,8.43
2018-04-25T10:22:26.875Z,8.57
2018-04-25T10:24:55.121Z,7.67
2018-04-25T10:27:22.632Z,8.47
2018-04-25T10:29:50.120Z,8.20
2018-04-25T10:32:18.474Z,8.80
2018-04-25T10:34:46.080Z,9.33
2018-04-25T10:37:13.606Z,9.13
2018-04-25T10:39:41.088Z,8.70
2018-04-25T10:42:09.356Z,8.77
2018-04-25T10:44:37.473Z,8.43
2018-04-25T10:47:04.964Z,8.17
2018-04-25T10:49:32.575Z,8.80
2018-04-25T10:52:00.943Z,8.13
2018-04-25T10:54:28.426Z,8.20
2018-04-25T10:56:56.698Z,8.40
2018-04-25T10:59:24.239Z,7.80
2018-04-25T11:01:51.863Z,8.20
2018-04-25T11:04:19.385Z,7.77
2018-04-25T11:06:46.877Z,8.00
2018-04-25T11:09:15.225Z,7.60
2018-04-25T11:11:42.792Z,7.53
2018-04-25T11:14:10.289Z,7.23
2018-04-25T11:16:37.818Z,7.83
2018-04-25T11:19:05.386Z,7.60
2018-04-25T11:21:32.889Z,7.93
2018-04-25T11:24:00.395Z,6.83
2018-04-25T11:26:27.948Z,7.73
2018-04-25T11:28:56.168Z,7.53
2018-04-25T11:31:23.659Z,7.43
2018-04-25T11:33:51.928Z,7.10
2018-04-25T11:36:19.426Z,7.30
2018-04-25T11:38:46.905Z,7.10
2018-04-25T11:41:14.429Z,7.00
2018-04-25T11:43:41.899Z,7.40
2018-04-25T11:46:10.231Z,6.90
2018-04-25T11:48:37.719Z,7.33
2018-04-25T11:51:05.283Z,7.17
2018-04-25T11:53:32.846Z,7.63
2018-04-25T11:56:00.330Z,7.43
2018-04-25T11:58:28.612Z,7.00
2018-04-25T12:00:56.973Z,7.33
2018-04-25T12:03:24.484Z,7.10
2018-04-25T12:05:51.986Z,8.60
2018-04-25T12:08:19.561Z,8.80
2018-04-25T12:10:47.058Z,8.43
2018-04-25T12:13:15.388Z,8.43
2018-04-25T12:15:42.817Z,8.90
2018-04-25T12:18:10.304Z,8.27
2018-04-25T12:20:40.931Z,8.80
2018-04-25T12:23:08.537Z,7.90
2018-04-25T12:25:36.103Z,8.17
2018-04-25T12:28:03.661Z,7.67
2018-04-25T12:30:31.224Z,8.67
2018-04-25T12:32:58.731Z,7.53
2018-04-25T12:35:27.011Z,8.00
2018-04-25T12:37:55.265Z,7.50
2018-04-25T12:40:22.754Z,8.00
2018-04-25T12:42:51.014Z,7.70
2018-04-25T12:45:18.599Z,8.20
2018-04-25T12:47:46.119Z,8.40
2018-04-25T12:50:13.610Z,10.10
2018-04-25T12:52:41.092Z,7.03
2018-04-25T12:55:09.523Z,7.27
2018-04-25T12:57:37.205Z,7.37
2018-04-25T13:00:04.717Z,7.83
2018-04-25T13:02:32.976Z,7.43
2018-04-25T13:05:00.471Z,7.87
2018-04-25T13:07:28.733Z,7.20
2018-04-25T13:09:56.235Z,7.60
2018-04-25T13:12:23.741Z,7.20
2018-04-25T13:14:51.269Z,6.97
2018-04-25T13:17:18.753Z,7.03
2018-04-25T13:19:46.354Z,7.17
2018-04-25T13:22:13.851Z,7.10
2018-04-25T13:24:41.370Z,6.10
2018-04-25T13:27:08.941Z,6.80
2018-04-25T13:29:36.505Z,7.07
2018-04-25T13:32:04.023Z,6.53
2018-04-25T13:34:31.519Z,6.03
2018-04-25T13:36:59.115Z,6.80
2018-04-25T13:39:26.664Z,6.27
2018-04-25T13:41:54.174Z,5.87
2018-04-25T13:44:21.664Z,6.13
2018-04-25T13:46:49.158Z,6.03
2018-04-25T13:49:16.676Z,5.67
2018-04-25T13:51:44.161Z,5.43
2018-04-25T13:54:11.757Z,5.67
2018-04-25T13:56:39.267Z,5.33
2018-04-25T13:59:06.785Z,5.27
2018-04-25T14:01:34.345Z,5.40
2018-04-25T14:04:01.920Z,5.43
2018-04-25T14:06:29.399Z,4.97
2018-04-25T14:08:57.771Z,4.90
2018-04-25T14:11:25.256Z,5.40
2018-04-25T14:13:53.607Z,5.07
2018-04-25T14:16:21.097Z,5.17
2018-04-25T14:18:49.363Z,8.43
2018-04-25T14:21:16.879Z,8.03
2018-04-25T14:23:44.356Z,7.97
2018-04-25T14:26:11.862Z,7.40
2018-04-25T14:28:39.363Z,6.70
2018-04-25T14:31:06.860Z,6.10
2018-04-25T14:33:34.441Z,6.10
2018-04-25T14:36:02.026Z,5.23
2018-04-25T14:38:29.458Z,5.73
2018-04-25T14:40:57.044Z,4.50
2018-04-25T14:43:24.565Z,4.50
2018-04-25T14:45:52.047Z,4.70
2018-04-25T14:48:19.641Z,3.97
2018-04-25T14:50:47.206Z,4.27
2018-04-25T14:53:14.687Z,3.77
2018-04-25T14:55:42.948Z,3.47
2018-04-25T14:58:10.440Z,4.30
2018-04-25T15:00:38.707Z,3.70
2018-04-25T15:03:06.224Z,3.60
2018-04-25T15:05:33.726Z,3.20
2018-04-25T15:08:01.213Z,3.80
2018-04-25T15:10:29.556Z,3.90
2018-04-25T15:12:57.132Z,3.20
2018-04-25T15:15:24.654Z,3.80
2018-04-25T15:17:52.186Z,3.00
2018-04-25T15:20:19.675Z,2.70
2018-04-25T15:22:47.164Z,3.07
2018-04-25T15:25:14.649Z,3.10
2018-04-25T15:27:42.210Z,3.00
2018-04-25T15:30:09.700Z,2.30
2018-04-25T15:32:37.965Z,2.90
2018-04-25T15:35:05.540Z,2.77
2018-04-25T15:37:33.150Z,2.70
2018-04-25T15:40:00.658Z,2.23
2018-04-25T15:42:28.235Z,2.00
2018-04-25T15:44:55.717Z,1.90
2018-04-25T15:47:23.967Z,1.80
2018-04-25T15:49:51.465Z,1.60
2018-04-25T15:52:19.727Z,2.07
2018-04-25T15:54:47.989Z,2.73
2018-04-25T15:57:15.494Z,6.83
2018-04-25T15:59:43.862Z,7.67
2018-04-25T16:02:12.131Z,6.23
2018-04-25T16:04:39.664Z,6.47
2018-04-25T16:07:07.141Z,5.80
2018-04-25T16:09:34.644Z,5.10
2018-04-25T16:12:02.906Z,5.43
2018-04-25T16:14:30.408Z,4.83
2018-04-25T16:16:58.017Z,4.50
2018-04-25T16:19:26.238Z,4.47
2018-04-25T16:21:53.776Z,3.73
2018-04-25T16:24:21.274Z,3.97
2018-04-25T16:26:49.634Z,4.10
2018-04-25T16:29:17.132Z,3.67
2018-04-25T16:31:44.670Z,3.83
2018-04-25T16:34:12.186Z,3.60
2018-04-25T16:36:39.680Z,3.47
2018-04-25T16:39:07.940Z,3.10
2018-04-25T16:41:35.450Z,3.33
2018-04-25T16:44:04.531Z,3.10
2018-04-25T16:46:32.033Z,3.10
2018-04-25T16:49:00.378Z,2.63
2018-04-25T16:51:27.963Z,2.90
2018-04-25T16:53:56.240Z,2.60
2018-04-25T16:56:23.807Z,2.70
2018-04-25T16:58:51.366Z,2.90
2018-04-25T17:01:18.930Z,2.90
2018-04-25T17:03:46.420Z,2.67
2018-04-25T17:06:14.707Z,2.77
2018-04-25T17:08:42.965Z,2.60
2018-04-25T17:11:12.055Z,3.20
2018-04-25T17:13:39.533Z,3.40
2018-04-25T17:16:08.529Z,3.70
2018-04-25T17:18:36.057Z,3.40
2018-04-25T17:21:03.537Z,4.20
2018-04-25T17:23:31.125Z,3.40
2018-04-25T17:25:58.699Z,3.40
2018-04-25T17:28:26.255Z,3.07
2018-04-25T17:30:54.538Z,3.13
2018-04-25T17:33:22.146Z,3.10
2018-04-25T17:35:49.640Z,3.80
2018-04-25T17:38:17.234Z,3.30
2018-04-25T17:40:44.728Z,3.23
2018-04-25T17:43:13.066Z,3.27
2018-04-25T17:45:40.634Z,3.10
2018-04-25T17:48:08.216Z,2.83
2018-04-25T17:50:35.721Z,3.23
2018-04-25T17:53:03.213Z,2.90
2018-04-25T17:55:30.717Z,3.40
2018-04-25T17:57:58.235Z,3.40
2018-04-25T18:00:25.725Z,3.00
2018-04-25T18:02:53.301Z,3.43
2018-04-25T18:05:20.870Z,2.97
2018-04-25T18:07:48.427Z,3.13
2018-04-25T18:10:15.916Z,3.17
2018-04-25T18:12:44.179Z,3.40
2018-04-25T18:15:11.744Z,3.43
2018-04-25T18:17:40.749Z,2.70
2018-04-25T18:20:08.304Z,2.83
2018-04-25T18:22:35.796Z,4.20
2018-04-25T18:25:04.044Z,4.07
2018-04-25T18:27:31.567Z,4.47
2018-04-25T18:29:59.075Z,3.53
2018-04-25T18:32:26.649Z,3.90
2018-04-25T18:34:54.218Z,3.57
2018-04-25T18:37:21.760Z,3.93
2018-04-25T18:39:49.239Z,3.90
2018-04-25T18:42:16.819Z,3.70
2018-04-25T18:44:45.818Z,3.80
2018-04-25T18:47:13.383Z,3.20
2018-04-25T18:49:40.912Z,3.33
2018-04-25T18:52:08.396Z,3.20
2018-04-25T18:54:35.884Z,3.43
2018-04-25T18:57:04.150Z,3.03
2018-04-25T18:59:31.726Z,3.20
2018-04-25T19:01:59.236Z,3.27
2018-04-25T19:04:26.726Z,3.00
2018-04-25T19:06:54.212Z,3.37
2018-04-25T19:09:21.724Z,2.70
2018-04-25T19:11:49.234Z,3.00
2018-04-25T19:14:16.740Z,3.00
2018-04-25T19:16:44.236Z,3.10
2018-04-25T19:19:11.731Z,3.03
2018-04-25T19:21:39.241Z,3.67
2018-04-25T19:24:06.738Z,4.40
2018-04-25T19:26:34.243Z,8.27
2018-04-25T19:29:02.604Z,5.10
2018-04-25T19:31:30.123Z,4.27
2018-04-25T19:33:57.643Z,4.30
2018-04-25T19:36:25.144Z,4.40
2018-04-25T19:38:52.644Z,4.17
2018-04-25T19:41:20.124Z,4.00
2018-04-25T19:43:49.154Z,3.80
2018-04-25T19:46:17.512Z,4.10
2018-04-25T19:48:45.796Z,4.10
2018-04-25T19:51:13.289Z,3.63
2018-04-25T19:53:40.772Z,3.60
2018-04-25T19:56:08.270Z,3.77
2018-04-25T19:58:35.851Z,3.90
2018-04-25T20:01:03.411Z,3.80
2018-04-25T20:03:31.675Z,3.40
2018-04-25T20:05:59.259Z,3.50
2018-04-25T20:08:26.882Z,3.50
2018-04-25T20:10:54.321Z,3.27
2018-04-25T20:13:22.590Z,3.30
2018-04-25T20:15:50.853Z,3.20
2018-04-25T20:18:18.445Z,3.10
2018-04-25T20:20:46.713Z,3.40
2018-04-25T20:23:14.964Z,3.20
2018-04-25T20:25:42.551Z,3.03
2018-04-25T20:28:10.040Z,3.00
2018-04-25T20:30:38.411Z,2.93
2018-04-25T20:33:05.903Z,2.93
2018-04-25T20:35:33.422Z,3.57
2018-04-25T20:38:00.992Z,2.83
2018-04-25T20:40:28.501Z,3.33
2018-04-25T20:42:55.985Z,2.87
2018-04-25T20:45:23.469Z,3.00
2018-04-25T20:47:50.987Z,3.33
2018-04-25T20:50:18.525Z,2.80
2018-04-25T20:52:46.095Z,3.20
2018-04-25T20:55:13.647Z,3.13
2018-04-25T20:57:41.155Z,3.10
2018-04-25T21:00:08.679Z,3.20
2018-04-25T21:02:36.249Z,3.20
2018-04-25T21:05:03.756Z,3.50
2018-04-25T21:07:31.267Z,2.90
2018-04-25T21:09:58.840Z,2.67
2018-04-25T21:12:26.479Z,2.90
2018-04-25T21:14:54.075Z,3.00
2018-04-25T21:17:21.677Z,2.77
2018-04-25T21:19:49.166Z,3.20
2018-04-25T21:22:16.649Z,2.87
2018-04-25T21:24:44.141Z,3.03
2018-04-25T21:27:11.633Z,3.00
2018-04-25T21:29:39.136Z,3.10
2018-04-25T21:32:06.621Z,2.90
2018-04-25T21:34:34.108Z,2.97
2018-04-25T21:37:02.371Z,2.80
2018-04-25T21:39:29.945Z,2.87
2018-04-25T21:41:57.458Z,2.70
2018-04-25T21:44:24.939Z,2.83
2018-04-25T21:46:52.507Z,2.50
2018-04-25T21:49:20.078Z,2.67
2018-04-25T21:51:47.665Z,2.70
2018-04-25T21:54:15.169Z,2.60
2018-04-25T21:56:42.679Z,2.43
2018-04-25T21:59:10.254Z,2.70
2018-04-25T22:01:37.743Z,2.70
2018-04-25T22:04:06.101Z,2.80
2018-04-25T22:06:33.601Z,2.87
2018-04-25T22:09:01.079Z,2.57
2018-04-25T22:11:28.647Z,2.30
2018-04-25T22:13:56.174Z,2.60
2018-04-25T22:16:23.666Z,2.57
2018-04-25T22:18:51.183Z,2.40
2018-04-25T22:21:18.758Z,2.60
2018-04-25T22:23:46.242Z,2.40
2018-04-25T22:26:14.593Z,2.50
2018-04-25T22:28:42.078Z,2.40
2018-04-25T22:31:09.630Z,2.50
2018-04-25T22:33:37.912Z,2.50
2018-04-25T22:36:05.411Z,2.37
2018-04-25T22:38:32.905Z,2.53
2018-04-25T22:41:00.423Z,2.20
2018-04-25T22:43:28.780Z,2.67
2018-04-25T22:45:56.354Z,2.50
2018-04-25T22:48:23.913Z,2.30
2018-04-25T22:50:51.483Z,2.27
2018-04-25T22:53:19.068Z,2.30
2018-04-25T22:55:46.625Z,2.30
2018-04-25T22:58:14.116Z,1.93
2018-04-25T23:00:42.362Z,2.27
2018-04-25T23:03:10.607Z,2.30
2018-04-25T23:05:38.093Z,2.30
2018-04-25T23:08:05.614Z,2.13
2018-04-25T23:10:33.860Z,2.20
2018-04-25T23:13:01.413Z,2.40
2018-04-25T23:15:29.001Z,2.33
2018-04-25T23:17:56.503Z,2.10
2018-04-25T23:20:24.020Z,2.00
2018-04-25T23:22:51.569Z,2.10
2018-04-25T23:25:19.045Z,2.20
2018-04-25T23:27:46.536Z,2.10
2018-04-25T23:30:14.903Z,2.10
2018-04-25T23:32:42.458Z,2.00
2018-04-25T23:35:09.949Z,2.10
2018-04-25T23:37:38.201Z,2.20
2018-04-25T23:40:05.764Z,2.30
2018-04-25T23:42:33.242Z,2.10
2018-04-25T23:45:00.771Z,2.03
2018-04-25T23:47:28.352Z,2.07
2018-04-25T23:49:55.840Z,1.70
2018-04-25T23:52:23.388Z,1.90
2018-04-25T23:54:50.948Z,2.17
2018-04-25T23:57:18.446Z,2.50
2018-04-25T23:59:46.712Z,2.10
